Time;durP1;ratioP1;P1;durP2;ratioP2;P2;SDS_P1;SDS_P2;PMS_P1;PMS_P2;Temp;Humidity;BMP_temperature;BMP_pressure;BME280_temperature;BME280_humidity;BME280_pressure;Samples;Min_cycle;Max_cycle;Signal;HPM_P1;HPM_P2
2022/09/18 00:02:23;;;;;;;1.88;1.45;;;11.70;99.90;;;;;;6164963;29;20187;-67
2022/09/18 00:05:27;;;;;;;1.40;1.40;;;11.70;99.90;;;;;;6164240;28;20231;-67
2022/09/18 00:08:32;;;;;;;1.55;1.55;;;11.70;99.90;;;;;;6164161;28;20231;-67
2022/09/18 00:11:40;;;;;;;1.73;1.67;;;11.70;99.90;;;;;;6163757;29;20187;-67
2022/09/18 00:14:44;;;;;;;1.70;1.70;;;11.70;99.90;;;;;;6164173;28;20259;-68
2022/09/18 00:17:50;;;;;;;2.55;2.35;;;11.80;99.90;;;;;;6164787;28;20254;-67
2022/09/18 00:20:54;;;;;;;2.65;1.80;;;11.80;99.90;;;;;;6163343;28;20310;-68
2022/09/18 00:24:00;;;;;;;1.33;1.33;;;11.70;99.90;;;;;;6164006;28;20589;-68
2022/09/18 00:27:05;;;;;;;1.38;1.38;;;11.70;99.90;;;;;;6164730;28;20188;-67
2022/09/18 00:30:11;;;;;;;1.20;1.20;;;11.70;99.90;;;;;;6164058;28;20243;-67
2022/09/18 00:33:20;;;;;;;1.15;1.15;;;11.70;99.90;;;;;;6162619;28;20198;-67
2022/09/18 00:36:24;;;;;;;1.30;1.30;;;11.70;99.90;;;;;;6164367;28;20188;-67
2022/09/18 00:39:29;;;;;;;2.83;1.02;;;11.70;99.90;;;;;;6149486;29;20315;-67
2022/09/18 00:42:34;;;;;;;1.65;1.10;;;11.80;99.90;;;;;;6140615;29;20255;-67
2022/09/18 00:45:39;;;;;;;0.90;0.90;;;11.70;99.90;;;;;;6139988;29;20522;-67
2022/09/18 00:48:49;;;;;;;1.15;1.10;;;11.80;99.90;;;;;;6140225;29;20235;-67
2022/09/18 00:51:55;;;;;;;1.35;1.10;;;11.70;99.90;;;;;;6140444;29;20188;-67
2022/09/18 00:55:06;;;;;;;5.22;4.82;;;11.70;99.90;;;;;;6140140;29;20295;-67
2022/09/18 00:58:13;;;;;;;3.90;3.70;;;11.60;99.90;;;;;;6140053;29;20195;-67
2022/09/18 01:01:17;;;;;;;25.42;12.52;;;11.60;99.90;;;;;;6139987;29;20417;-68
2022/09/18 01:04:23;;;;;;;25.27;11.90;;;11.50;99.90;;;;;;6138716;29;20238;-68
2022/09/18 01:07:40;;;;;;;24.95;12.15;;;11.60;99.90;;;;;;6140296;29;20220;-68
2022/09/18 01:10:59;;;;;;;20.38;10.25;;;11.60;99.90;;;;;;6139843;29;20231;-67
2022/09/18 01:14:25;;;;;;;16.63;8.82;;;11.60;99.90;;;;;;6138695;29;20298;-67
2022/09/18 01:17:37;;;;;;;7.82;5.50;;;11.60;99.90;;;;;;6138790;29;20251;-68
2022/09/18 01:20:55;;;;;;;7.35;3.72;;;11.60;99.90;;;;;;6138226;29;20557;-67
2022/09/18 01:24:45;;;;;;;2.10;2.00;;;11.60;99.90;;;;;;6139439;29;20307;-68
2022/09/18 01:28:08;;;;;;;2.53;2.42;;;11.60;99.90;;;;;;6139055;29;20189;-68
2022/09/18 01:31:18;;;;;;;1.70;1.60;;;11.50;99.90;;;;;;6138646;29;20461;-67
2022/09/18 01:34:29;;;;;;;1.80;1.80;;;11.60;99.90;;;;;;6142664;29;20258;-67
2022/09/18 01:37:36;;;;;;;1.45;1.45;;;11.60;99.90;;;;;;6144610;29;20195;-67
2022/09/18 01:40:44;;;;;;;1.35;1.25;;;11.50;99.90;;;;;;6166578;28;20231;-68
2022/09/18 01:43:54;;;;;;;1.35;1.35;;;11.60;99.90;;;;;;6167587;28;20255;-67
2022/09/18 01:47:00;;;;;;;1.40;1.20;;;11.50;99.90;;;;;;6166628;29;20516;-68
2022/09/18 01:50:11;;;;;;;1.02;1.00;;;11.50;99.90;;;;;;6165977;29;20239;-68
2022/09/18 01:53:19;;;;;;;2.50;1.10;;;11.40;99.90;;;;;;6166507;28;20231;-68
2022/09/18 01:56:28;;;;;;;1.33;1.33;;;11.50;99.90;;;;;;6166353;29;20255;-67
2022/09/18 01:59:38;;;;;;;1.00;1.00;;;11.30;99.90;;;;;;6166120;29;20427;-68
2022/09/18 02:02:50;;;;;;;1.20;1.20;;;11.30;99.90;;;;;;6166665;29;20341;-67
2022/09/18 02:06:02;;;;;;;1.23;1.00;;;11.30;99.90;;;;;;6166073;29;20306;-68
2022/09/18 02:09:08;;;;;;;1.27;1.27;;;11.30;99.90;;;;;;6165926;28;20231;-69
2022/09/18 02:12:18;;;;;;;0.98;0.98;;;11.30;99.90;;;;;;6167131;28;20187;-68
2022/09/18 02:15:29;;;;;;;1.25;1.25;;;11.30;99.90;;;;;;6166000;29;20350;-68
2022/09/18 02:18:41;;;;;;;1.20;1.20;;;11.30;99.90;;;;;;6165816;28;20231;-67
2022/09/18 02:21:47;;;;;;;1.08;1.08;;;11.30;99.90;;;;;;6166930;28;20215;-67
2022/09/18 02:24:54;;;;;;;2.60;1.20;;;11.30;99.90;;;;;;6165598;29;20235;-67
2022/09/18 02:27:58;;;;;;;1.17;1.17;;;11.30;99.90;;;;;;6167029;29;20188;-67
2022/09/18 02:31:04;;;;;;;1.40;1.23;;;11.20;99.90;;;;;;6165388;29;20306;-67
2022/09/18 02:34:10;;;;;;;1.30;1.20;;;11.20;99.90;;;;;;6164996;29;20608;-67
2022/09/18 02:37:27;;;;;;;2.63;1.20;;;11.20;99.90;;;;;;6165467;29;20187;-67
2022/09/18 02:40:42;;;;;;;1.10;1.10;;;11.30;99.90;;;;;;6143862;29;20239;-68
2022/09/18 02:43:54;;;;;;;1.10;1.10;;;11.10;99.90;;;;;;6141320;29;20236;-67
2022/09/18 02:47:10;;;;;;;1.23;1.23;;;11.20;99.90;;;;;;6141816;29;20259;-67
2022/09/18 02:50:20;;;;;;;1.00;1.00;;;11.10;99.90;;;;;;6142483;29;20287;-68
2022/09/18 02:53:29;;;;;;;1.27;1.27;;;11.10;99.90;;;;;;6141268;29;20236;-68
2022/09/18 02:56:39;;;;;;;1.10;1.10;;;11.10;99.90;;;;;;6141701;29;20228;-68
2022/09/18 02:59:47;;;;;;;1.05;1.05;;;11.10;99.90;;;;;;6142336;29;20243;-68
2022/09/18 03:02:57;;;;;;;1.10;1.10;;;11.00;99.90;;;;;;6135704;29;20224;-68
2022/09/18 03:06:24;;;;;;;0.93;0.93;;;11.00;99.90;;;;;;6133722;29;20239;-69
2022/09/18 03:09:31;;;;;;;2.47;1.50;;;11.00;99.90;;;;;;6164212;29;20536;-68
2022/09/18 03:12:35;;;;;;;0.95;0.93;;;11.00;99.90;;;;;;6142396;29;20251;-68
2022/09/18 03:15:40;;;;;;;1.00;1.00;;;11.10;99.90;;;;;;6140757;29;20504;-68
2022/09/18 03:18:46;;;;;;;1.23;1.23;;;11.00;99.90;;;;;;6144552;29;20455;-68
2022/09/18 03:21:52;;;;;;;1.20;1.20;;;11.10;99.90;;;;;;6164350;28;20263;-68
2022/09/18 03:25:00;;;;;;;1.10;1.10;;;11.00;99.90;;;;;;6164683;29;20274;-68
2022/09/18 03:28:04;;;;;;;1.52;1.52;;;11.00;99.90;;;;;;6164998;28;20434;-68
2022/09/18 03:31:14;;;;;;;1.20;1.20;;;11.00;99.90;;;;;;6164064;29;20310;-68
2022/09/18 03:34:22;;;;;;;1.05;1.05;;;10.90;99.90;;;;;;6164141;29;20231;-68
2022/09/18 03:37:26;;;;;;;1.30;1.30;;;10.90;99.90;;;;;;6146984;29;20232;-68
2022/09/18 03:40:32;;;;;;;1.10;1.10;;;10.80;99.90;;;;;;6140159;29;20383;-68
2022/09/18 03:43:41;;;;;;;1.20;1.17;;;10.80;99.90;;;;;;6139775;29;20232;-68
2022/09/18 03:46:47;;;;;;;1.20;1.10;;;10.80;99.90;;;;;;6141549;29;20220;-68
2022/09/18 03:49:53;;;;;;;1.02;1.02;;;10.80;99.90;;;;;;6140906;29;20247;-68
2022/09/18 03:52:58;;;;;;;1.00;1.00;;;10.80;99.90;;;;;;6139775;29;20306;-67
2022/09/18 03:56:15;;;;;;;1.20;1.20;;;10.80;99.90;;;;;;6140252;29;20231;-67
2022/09/18 03:59:39;;;;;;;3.72;1.20;;;10.80;99.90;;;;;;6140403;29;20231;-67
2022/09/18 04:03:16;;;;;;;1.02;1.02;;;10.80;99.90;;;;;;6129468;29;20553;-68
2022/09/18 04:06:24;;;;;;;1.08;1.08;;;10.80;99.90;;;;;;6140631;29;20286;-67
2022/09/18 04:09:55;;;;;;;1.38;1.27;;;10.70;99.90;;;;;;6098747;29;20232;-68
2022/09/18 04:12:59;;;;;;;1.45;1.45;;;10.80;99.90;;;;;;6147954;29;20298;-68
2022/09/18 04:16:08;;;;;;;1.20;1.20;;;10.80;99.90;;;;;;6163314;29;20192;-68
2022/09/18 04:19:13;;;;;;;1.30;1.30;;;10.90;99.90;;;;;;6144240;29;20231;-68
2022/09/18 04:22:18;;;;;;;1.40;1.40;;;10.90;99.90;;;;;;6142640;28;20233;-68
2022/09/18 04:25:23;;;;;;;1.30;1.30;;;10.80;99.90;;;;;;6164656;28;20226;-68
2022/09/18 04:28:37;;;;;;;1.15;1.10;;;10.80;99.90;;;;;;6163102;29;20231;-68
2022/09/18 04:31:42;;;;;;;1.30;1.30;;;10.80;99.90;;;;;;6163146;29;20238;-68
2022/09/18 04:34:50;;;;;;;1.30;1.30;;;10.90;99.90;;;;;;6139505;29;20277;-68
2022/09/18 04:37:57;;;;;;;1.40;1.30;;;10.90;99.90;;;;;;6139096;29;20239;-68
2022/09/18 04:41:02;;;;;;;2.08;1.10;;;11.00;99.90;;;;;;6139543;29;20267;-68
2022/09/18 04:44:07;;;;;;;1.50;1.50;;;11.10;99.90;;;;;;6156443;29;20231;-68
2022/09/18 04:47:11;;;;;;;2.13;1.83;;;11.10;99.90;;;;;;6160244;28;20250;-68
2022/09/18 04:50:16;;;;;;;1.42;1.42;;;11.00;99.90;;;;;;6140096;29;20188;-68
2022/09/18 04:53:50;;;;;;;1.90;1.90;;;11.00;99.90;;;;;;6150473;28;20418;-68
2022/09/18 04:56:55;;;;;;;1.80;1.70;;;11.20;99.90;;;;;;6162377;28;20195;-68
2022/09/18 04:59:59;;;;;;;1.73;1.73;;;11.20;99.90;;;;;;6139313;29;20259;-68
2022/09/18 05:03:04;;;;;;;1.60;1.50;;;11.20;99.90;;;;;;6148322;29;20294;-68
2022/09/18 05:06:13;;;;;;;1.65;1.65;;;11.20;99.90;;;;;;6163310;28;20219;-68
2022/09/18 05:09:19;;;;;;;1.60;1.60;;;11.20;99.90;;;;;;6167355;29;20541;-68
2022/09/18 05:12:23;;;;;;;1.85;1.85;;;11.20;99.90;;;;;;6135874;29;20235;-68
2022/09/18 05:15:28;;;;;;;1.73;1.73;;;11.20;99.90;;;;;;6120991;29;20200;-67
2022/09/18 05:18:33;;;;;;;1.80;1.80;;;11.20;99.90;;;;;;6119465;29;20539;-68
2022/09/18 05:21:38;;;;;;;2.60;1.85;;;11.30;99.90;;;;;;6120162;29;20193;-67
2022/09/18 05:24:46;;;;;;;1.75;1.75;;;11.30;99.90;;;;;;6119496;29;20232;-68
2022/09/18 05:27:55;;;;;;;1.95;1.95;;;11.40;99.90;;;;;;6134825;29;20324;-67
2022/09/18 05:31:02;;;;;;;1.92;1.83;;;11.40;99.90;;;;;;6119270;29;20617;-68
2022/09/18 05:34:16;;;;;;;1.77;1.65;;;11.50;99.90;;;;;;6135217;29;20259;-68
2022/09/18 05:37:20;;;;;;;1.60;1.60;;;11.50;99.90;;;;;;6119122;29;20311;-68
2022/09/18 05:40:33;;;;;;;1.60;1.60;;;11.40;99.90;;;;;;6135413;29;20189;-68
2022/09/18 05:43:38;;;;;;;1.70;1.70;;;11.40;99.90;;;;;;6119040;29;20403;-68
2022/09/18 05:46:47;;;;;;;1.73;1.73;;;11.40;99.90;;;;;;6135006;29;20408;-68
2022/09/18 05:49:52;;;;;;;1.80;1.70;;;11.30;99.90;;;;;;6119043;29;20236;-68
2022/09/18 05:53:00;;;;;;;1.50;1.50;;;11.30;99.90;;;;;;6134864;29;20248;-68
2022/09/18 05:56:12;;;;;;;1.60;1.60;;;11.40;99.90;;;;;;6119031;29;20193;-68
2022/09/18 05:59:17;;;;;;;1.73;1.60;;;11.30;99.90;;;;;;6134678;29;20244;-68
2022/09/18 06:02:23;;;;;;;1.48;1.45;;;11.40;99.90;;;;;;6134568;29;20236;-68
2022/09/18 06:05:41;;;;;;;3.53;1.65;;;11.30;99.90;;;;;;6134979;29;20216;-68
2022/09/18 06:08:49;;;;;;;1.60;1.60;;;11.30;99.90;;;;;;6118548;29;20342;-68
2022/09/18 06:11:55;;;;;;;1.73;1.70;;;11.20;99.90;;;;;;6138039;29;20216;-68
2022/09/18 06:14:59;;;;;;;1.75;1.65;;;11.20;99.90;;;;;;6142624;29;20192;-67
2022/09/18 06:18:05;;;;;;;1.67;1.60;;;11.20;99.90;;;;;;6140304;29;20435;-68
2022/09/18 06:21:13;;;;;;;1.60;1.60;;;11.20;99.90;;;;;;6142605;29;20189;-67
2022/09/18 06:24:19;;;;;;;1.85;1.70;;;11.30;99.90;;;;;;6122647;29;20233;-68
2022/09/18 06:27:44;;;;;;;1.75;1.70;;;11.40;99.90;;;;;;6118235;29;20300;-68
2022/09/18 06:30:49;;;;;;;1.63;1.52;;;11.40;99.90;;;;;;6118208;29;20311;-68
2022/09/18 06:33:53;;;;;;;1.63;1.63;;;11.40;99.90;;;;;;6117874;29;20295;-68
2022/09/18 06:36:58;;;;;;;1.77;1.77;;;11.50;99.90;;;;;;6118898;29;20199;-69
2022/09/18 06:40:28;;;;;;;1.60;1.60;;;11.50;99.90;;;;;;6119219;29;20499;-67
2022/09/18 06:43:57;;;;;;;3.20;1.75;;;11.70;99.90;;;;;;6117754;29;20239;-67
2022/09/18 06:47:09;;;;;;;2.17;1.52;;;11.80;99.90;;;;;;6117795;29;20308;-67
2022/09/18 06:50:18;;;;;;;2.55;1.80;;;12.00;99.90;;;;;;6117759;29;20460;-68
2022/09/18 06:53:23;;;;;;;1.80;1.80;;;11.90;99.90;;;;;;6117367;29;20551;-68
2022/09/18 06:56:32;;;;;;;3.40;1.88;;;11.90;99.90;;;;;;6118033;29;20269;-68
2022/09/18 06:59:38;;;;;;;2.40;2.20;;;11.80;99.90;;;;;;6117264;29;20260;-68
2022/09/18 07:02:43;;;;;;;3.80;1.95;;;11.90;99.90;;;;;;6118557;29;20295;-67
2022/09/18 07:06:09;;;;;;;1.73;1.70;;;11.90;99.90;;;;;;6098986;29;20228;-68
2022/09/18 07:09:23;;;;;;;2.22;2.00;;;12.00;99.90;;;;;;6117012;29;20254;-68
2022/09/18 07:12:56;;;;;;;1.63;1.63;;;11.90;99.90;;;;;;6092640;29;20360;-67
2022/09/18 07:16:02;;;;;;;2.47;1.55;;;11.90;99.90;;;;;;6095124;29;20190;-69
2022/09/18 07:19:08;;;;;;;1.90;1.80;;;12.00;99.90;;;;;;6093734;29;20233;-68
2022/09/18 07:22:13;;;;;;;1.60;1.60;;;11.90;99.90;;;;;;6093072;29;20679;-68
2022/09/18 07:25:21;;;;;;;1.80;1.70;;;12.10;99.90;;;;;;6109102;29;20473;-68
2022/09/18 07:28:25;;;;;;;1.90;1.80;;;12.10;99.90;;;;;;6092816;29;20314;-68
2022/09/18 07:31:38;;;;;;;1.80;1.80;;;12.20;99.90;;;;;;6092919;29;20309;-68
2022/09/18 07:34:45;;;;;;;2.00;2.00;;;12.20;99.90;;;;;;6093024;29;20245;-68
2022/09/18 07:37:58;;;;;;;1.75;1.75;;;12.20;99.90;;;;;;6108545;29;20244;-67
2022/09/18 07:41:17;;;;;;;1.70;1.70;;;12.20;99.90;;;;;;6093105;29;20464;-67
2022/09/18 07:44:22;;;;;;;1.83;1.80;;;12.20;99.90;;;;;;6092582;29;20573;-68
2022/09/18 07:47:30;;;;;;;1.60;1.60;;;12.20;99.90;;;;;;6092810;29;20241;-68
2022/09/18 07:50:37;;;;;;;1.67;1.67;;;12.30;99.90;;;;;;6092983;29;20371;-68
2022/09/18 07:53:43;;;;;;;1.65;1.65;;;12.30;99.90;;;;;;6092594;29;20480;-68
2022/09/18 07:56:48;;;;;;;1.65;1.65;;;12.30;99.90;;;;;;6093225;29;20273;-67
2022/09/18 07:59:56;;;;;;;1.88;1.60;;;12.30;99.90;;;;;;6092517;29;20240;-67
2022/09/18 08:03:03;;;;;;;1.67;1.67;;;12.30;99.90;;;;;;6101152;29;20461;-68
2022/09/18 08:06:33;;;;;;;1.80;1.80;;;12.20;99.90;;;;;;6132081;29;20240;-68
2022/09/18 08:10:10;;;;;;;1.50;1.50;;;12.30;99.90;;;;;;6077227;29;20196;-68
2022/09/18 08:13:28;;;;;;;1.83;1.83;;;12.40;99.90;;;;;;6163061;29;20231;-68
2022/09/18 08:16:56;;;;;;;1.40;1.40;;;12.60;99.90;;;;;;6136688;28;20403;-67
2022/09/18 08:20:18;;;;;;;1.92;1.83;;;12.70;99.90;;;;;;6163119;29;20194;-68
2022/09/18 08:23:28;;;;;;;1.88;1.70;;;12.70;99.90;;;;;;6163109;29;20237;-67
2022/09/18 08:26:37;;;;;;;1.40;1.40;;;12.70;99.90;;;;;;6163346;29;20188;-67
2022/09/18 08:29:42;;;;;;;2.28;1.60;;;12.80;99.90;;;;;;6162832;29;20313;-68
2022/09/18 08:32:47;;;;;;;1.48;1.38;;;12.80;99.90;;;;;;6163734;28;20453;-69
2022/09/18 08:35:53;;;;;;;1.48;1.30;;;12.80;99.90;;;;;;6163039;29;20369;-70
2022/09/18 08:39:10;;;;;;;1.50;1.50;;;12.80;99.90;;;;;;6162971;29;20246;-70
2022/09/18 08:42:29;;;;;;;1.30;1.30;;;13.00;99.90;;;;;;6163072;28;20294;-68
2022/09/18 08:45:46;;;;;;;1.40;1.40;;;13.00;99.90;;;;;;6163409;29;20211;-69
2022/09/18 08:48:59;;;;;;;1.55;1.55;;;13.00;99.90;;;;;;6162995;29;20259;-68
2022/09/18 08:52:10;;;;;;;1.55;1.55;;;12.90;99.90;;;;;;6162670;28;20187;-67
2022/09/18 08:55:21;;;;;;;1.55;1.50;;;13.10;99.90;;;;;;6162806;29;20232;-68
2022/09/18 08:59:00;;;;;;;1.20;1.20;;;13.30;99.90;;;;;;6149844;28;20235;-69
2022/09/18 09:02:29;;;;;;;1.58;1.40;;;13.10;99.90;;;;;;6162594;28;20220;-68
2022/09/18 09:05:40;;;;;;;1.48;1.35;;;13.10;99.90;;;;;;6146921;29;20218;-69
2022/09/18 09:09:11;;;;;;;1.40;1.40;;;13.00;99.90;;;;;;6162533;29;20306;-69
2022/09/18 09:12:29;;;;;;;1.27;1.27;;;13.10;99.90;;;;;;6128146;29;20225;-68
2022/09/18 09:15:39;;;;;;;1.42;1.30;;;13.00;99.90;;;;;;6091639;29;20190;-68
2022/09/18 09:19:00;;;;;;;1.33;1.33;;;12.80;99.90;;;;;;6091636;29;20236;-68
2022/09/18 09:22:16;;;;;;;1.30;1.30;;;12.80;99.90;;;;;;6091457;29;20218;-68
2022/09/18 09:25:27;;;;;;;1.33;1.33;;;12.80;99.90;;;;;;6092077;29;20190;-67
2022/09/18 09:28:54;;;;;;;1.30;1.30;;;12.80;99.90;;;;;;6121681;29;20492;-68
2022/09/18 09:32:37;;;;;;;1.75;1.30;;;12.90;99.90;;;;;;6104568;29;20236;-67
2022/09/18 09:36:07;;;;;;;1.45;1.30;;;12.90;99.90;;;;;;6114929;29;20272;-67
2022/09/18 09:39:26;;;;;;;2.38;1.25;;;12.90;99.90;;;;;;6095172;29;20308;-68
2022/09/18 09:42:39;;;;;;;1.20;1.20;;;13.00;99.90;;;;;;6096321;29;20233;-68
2022/09/18 09:45:48;;;;;;;1.33;1.30;;;13.10;99.90;;;;;;6115383;29;20261;-68
2022/09/18 09:48:59;;;;;;;2.63;2.30;;;13.10;99.90;;;;;;6114393;29;20248;-68
2022/09/18 09:52:09;;;;;;;1.58;1.58;;;13.10;99.90;;;;;;6130553;29;20216;-68
2022/09/18 09:55:22;;;;;;;2.45;2.38;;;13.20;99.90;;;;;;6119579;29;20260;-69
2022/09/18 09:58:41;;;;;;;3.70;3.60;;;13.30;99.90;;;;;;6118542;29;20547;-69
2022/09/18 10:01:49;;;;;;;5.30;5.00;;;13.50;99.90;;;;;;6119260;29;20219;-69
2022/09/18 10:05:00;;;;;;;7.03;6.43;;;13.60;99.90;;;;;;6118833;29;20213;-67
2022/09/18 10:08:12;;;;;;;4.93;4.50;;;13.70;99.90;;;;;;6118452;29;20247;-67
2022/09/18 10:11:18;;;;;;;2.60;2.53;;;13.70;99.90;;;;;;6148151;29;20489;-68
2022/09/18 10:14:33;;;;;;;2.28;2.20;;;13.70;99.90;;;;;;6145121;28;20601;-69
2022/09/18 10:17:38;;;;;;;2.15;1.70;;;13.70;99.90;;;;;;6147481;28;20281;-68
2022/09/18 10:20:45;;;;;;;1.80;1.80;;;13.70;99.90;;;;;;6166245;29;20187;-68
2022/09/18 10:23:54;;;;;;;1.00;1.00;;;13.70;99.90;;;;;;6150141;29;20368;-66
2022/09/18 10:27:03;;;;;;;5.15;1.23;;;13.60;99.90;;;;;;6142397;28;20189;-67
2022/09/18 10:30:14;;;;;;;1.23;1.15;;;13.70;99.90;;;;;;6165476;29;20239;-67
2022/09/18 10:33:35;;;;;;;1.10;1.10;;;13.70;99.90;;;;;;6153479;29;20283;-68
2022/09/18 10:36:43;;;;;;;1.95;1.00;;;13.80;99.90;;;;;;6142205;29;20259;-68
2022/09/18 10:39:56;;;;;;;0.90;0.90;;;13.90;99.90;;;;;;6165110;29;20441;-68
2022/09/18 10:43:04;;;;;;;1.00;1.00;;;13.90;99.90;;;;;;6165027;28;20546;-68
2022/09/18 10:46:12;;;;;;;0.90;0.90;;;14.00;99.90;;;;;;6165778;29;20188;-68
2022/09/18 10:49:24;;;;;;;0.88;0.88;;;14.20;99.90;;;;;;6165038;29;20231;-68
2022/09/18 10:52:33;;;;;;;0.90;0.90;;;14.20;99.90;;;;;;6161590;28;20242;-68
2022/09/18 10:55:50;;;;;;;0.85;0.85;;;14.30;99.90;;;;;;6141319;29;20224;-68
2022/09/18 10:59:19;;;;;;;1.08;1.08;;;14.30;99.90;;;;;;6157720;29;20235;-68
2022/09/18 11:02:28;;;;;;;0.82;0.82;;;14.30;99.90;;;;;;6176842;28;20235;-68
2022/09/18 11:05:36;;;;;;;2.92;1.00;;;14.30;99.90;;;;;;6140322;29;20497;-68
2022/09/18 11:08:45;;;;;;;1.00;1.00;;;14.40;99.90;;;;;;6154606;29;20520;-68
2022/09/18 11:11:50;;;;;;;1.00;1.00;;;14.50;99.90;;;;;;6138113;29;20217;-68
2022/09/18 11:15:06;;;;;;;1.35;1.00;;;14.50;99.90;;;;;;6117223;29;20205;-68
2022/09/18 11:18:15;;;;;;;0.82;0.82;;;14.60;99.90;;;;;;6117053;29;20236;-68
2022/09/18 11:21:20;;;;;;;0.60;0.60;;;14.50;99.90;;;;;;6116969;29;20216;-66
2022/09/18 11:24:26;;;;;;;0.90;0.90;;;14.50;99.90;;;;;;6117922;29;20243;-68
2022/09/18 11:27:47;;;;;;;0.90;0.90;;;14.40;99.90;;;;;;6116708;29;20300;-68
2022/09/18 11:30:58;;;;;;;0.80;0.80;;;14.40;99.90;;;;;;6115380;29;20246;-68
2022/09/18 11:34:04;;;;;;;1.15;1.08;;;14.50;99.90;;;;;;6099523;29;20425;-68
2022/09/18 11:37:21;;;;;;;1.27;0.70;;;14.60;99.90;;;;;;6093254;29;20196;-69
2022/09/18 11:40:29;;;;;;;2.05;0.70;;;14.60;99.90;;;;;;6094525;29;20221;-68
2022/09/18 11:43:36;;;;;;;5.38;4.85;;;14.80;99.90;;;;;;6094190;29;20389;-67
2022/09/18 11:46:48;;;;;;;1.92;1.80;;;14.80;99.90;;;;;;6093227;29;20217;-68
2022/09/18 11:50:10;;;;;;;0.85;0.85;;;14.80;99.90;;;;;;6092921;29;20245;-68
2022/09/18 11:53:19;;;;;;;1.02;1.02;;;14.70;99.90;;;;;;6093571;29;20496;-69
2022/09/18 11:56:31;;;;;;;0.70;0.70;;;14.70;99.90;;;;;;6092915;29;20490;-67
2022/09/18 11:59:41;;;;;;;0.88;0.73;;;14.70;99.90;;;;;;6113857;29;20236;-67
2022/09/18 12:02:56;;;;;;;0.60;0.60;;;14.60;99.90;;;;;;6115741;29;20315;-67
2022/09/18 12:06:07;;;;;;;0.95;0.95;;;14.70;99.90;;;;;;6115815;29;20339;-68
2022/09/18 12:09:20;;;;;;;0.80;0.80;;;14.70;99.90;;;;;;6097430;29;20264;-67
2022/09/18 12:12:29;;;;;;;0.85;0.80;;;14.70;99.90;;;;;;6116504;29;20240;-67
2022/09/18 12:15:36;;;;;;;0.77;0.77;;;14.60;99.90;;;;;;6116070;29;20189;-69
2022/09/18 12:18:52;;;;;;;0.82;0.82;;;14.60;99.90;;;;;;6115351;29;20462;-68
2022/09/18 12:22:04;;;;;;;1.67;0.80;;;14.60;99.90;;;;;;6115554;29;20201;-68
2022/09/18 12:25:15;;;;;;;0.80;0.80;;;14.60;99.90;;;;;;6117074;29;20196;-68
2022/09/18 12:29:04;;;;;;;1.00;1.00;;;14.70;99.90;;;;;;6116263;29;20236;-68
2022/09/18 12:32:25;;;;;;;0.80;0.80;;;14.60;99.90;;;;;;6115810;29;20252;-68
2022/09/18 12:35:43;;;;;;;1.65;1.08;;;14.50;99.90;;;;;;6117120;29;20224;-66
2022/09/18 12:39:02;;;;;;;0.73;0.73;;;14.70;99.90;;;;;;6116171;29;20259;-66
2022/09/18 12:42:20;;;;;;;0.70;0.70;;;14.70;99.90;;;;;;6116471;29;20256;-67
2022/09/18 12:45:54;;;;;;;0.80;0.80;;;14.70;99.90;;;;;;6116942;29;20189;-66
2022/09/18 12:49:15;;;;;;;0.80;0.80;;;14.50;99.90;;;;;;6116298;29;20294;-66
2022/09/18 12:52:29;;;;;;;0.63;0.63;;;14.50;99.90;;;;;;6116508;29;20300;-68
2022/09/18 12:55:57;;;;;;;0.50;0.50;;;14.40;99.90;;;;;;6116855;29;20390;-68
2022/09/18 12:59:33;;;;;;;0.70;0.70;;;14.50;99.90;;;;;;6116246;29;20308;-68
2022/09/18 13:02:51;;;;;;;0.70;0.70;;;14.60;99.90;;;;;;6116451;29;20256;-68
2022/09/18 13:05:59;;;;;;;0.80;0.80;;;14.70;99.90;;;;;;6116890;29;20256;-68
2022/09/18 13:09:10;;;;;;;0.70;0.70;;;14.60;99.90;;;;;;6116321;29;20329;-68
2022/09/18 13:12:20;;;;;;;0.65;0.50;;;14.40;99.90;;;;;;6115824;29;20244;-68
2022/09/18 13:15:28;;;;;;;0.60;0.60;;;14.40;99.90;;;;;;6116750;29;20236;-68
2022/09/18 13:18:37;;;;;;;1.70;0.80;;;14.40;99.90;;;;;;6115770;29;20232;-68
2022/09/18 13:21:43;;;;;;;0.70;0.70;;;14.40;99.90;;;;;;6116603;29;20224;-68
2022/09/18 13:24:51;;;;;;;1.27;0.80;;;14.30;99.90;;;;;;6116087;29;20239;-68
2022/09/18 13:27:58;;;;;;;0.50;0.50;;;14.20;99.90;;;;;;6117564;29;20312;-68
2022/09/18 13:31:27;;;;;;;1.77;0.68;;;14.40;99.90;;;;;;6120231;29;20291;-67
2022/09/18 13:34:32;;;;;;;1.98;0.50;;;14.50;99.90;;;;;;6120239;29;20251;-67
2022/09/18 13:37:36;;;;;;;0.60;0.60;;;14.50;99.90;;;;;;6120097;29;20228;-67
2022/09/18 13:40:43;;;;;;;0.80;0.80;;;14.50;99.90;;;;;;6120409;29;20224;-68
2022/09/18 13:43:54;;;;;;;0.73;0.73;;;14.50;99.90;;;;;;6120336;29;20232;-67
2022/09/18 13:47:10;;;;;;;0.50;0.50;;;14.50;99.90;;;;;;6120205;29;20264;-68
2022/09/18 13:50:17;;;;;;;0.60;0.60;;;14.50;99.90;;;;;;6120003;29;20217;-67
2022/09/18 13:53:38;;;;;;;0.60;0.60;;;14.40;99.90;;;;;;6120095;29;20309;-68
2022/09/18 13:57:19;;;;;;;0.57;0.57;;;14.40;99.90;;;;;;6119955;29;20452;-67
2022/09/18 14:00:41;;;;;;;0.60;0.60;;;14.30;99.90;;;;;;6143396;29;20332;-67
2022/09/18 14:03:46;;;;;;;0.88;0.88;;;14.20;99.90;;;;;;6143099;29;20465;-67
2022/09/18 14:06:50;;;;;;;1.10;1.10;;;14.20;99.90;;;;;;6143561;29;20363;-67
2022/09/18 14:09:57;;;;;;;0.90;0.90;;;14.20;99.90;;;;;;6147104;29;20221;-68
2022/09/18 14:13:30;;;;;;;0.80;0.80;;;14.30;99.90;;;;;;6157149;28;20243;-67
2022/09/18 14:16:42;;;;;;;0.60;0.60;;;14.50;99.90;;;;;;6138031;29;20227;-67
2022/09/18 14:19:49;;;;;;;0.50;0.50;;;14.40;99.90;;;;;;6164759;29;20238;-66
2022/09/18 14:22:53;;;;;;;0.70;0.70;;;14.50;99.90;;;;;;6158728;28;20231;-67
2022/09/18 14:25:57;;;;;;;2.58;0.75;;;14.50;99.90;;;;;;6143500;29;20188;-67
2022/09/18 14:29:06;;;;;;;0.75;0.75;;;14.40;99.90;;;;;;6159390;28;20234;-67
2022/09/18 14:32:18;;;;;;;0.93;0.60;;;14.40;99.90;;;;;;6164374;28;20346;-68
2022/09/18 14:35:32;;;;;;;0.57;0.57;;;14.50;99.90;;;;;;6142768;29;20375;-68
2022/09/18 14:38:39;;;;;;;0.95;0.95;;;14.50;99.90;;;;;;6155680;28;20254;-67
2022/09/18 14:41:43;;;;;;;0.65;0.60;;;14.50;99.90;;;;;;6166557;28;20195;-67
2022/09/18 14:44:49;;;;;;;2.28;0.50;;;14.50;99.90;;;;;;6143298;28;20650;-69
2022/09/18 14:47:55;;;;;;;0.60;0.60;;;14.50;99.90;;;;;;6150469;28;20302;-67
2022/09/18 14:51:06;;;;;;;0.80;0.80;;;14.40;99.90;;;;;;6166193;29;20542;-68
2022/09/18 14:54:22;;;;;;;1.17;1.17;;;14.40;99.90;;;;;;6147831;28;20250;-67
2022/09/18 14:57:35;;;;;;;8.63;7.75;;;14.40;99.90;;;;;;6146595;28;20238;-68
2022/09/18 15:00:40;;;;;;;1.42;1.42;;;14.30;99.90;;;;;;6166190;29;20508;-67
2022/09/18 15:03:48;;;;;;;0.80;0.80;;;14.30;99.90;;;;;;6151536;28;20298;-67
2022/09/18 15:06:54;;;;;;;0.50;0.50;;;14.30;99.90;;;;;;6141457;29;20236;-67
2022/09/18 15:10:01;;;;;;;1.55;0.73;;;14.30;99.90;;;;;;6137722;29;20208;-68
2022/09/18 15:13:08;;;;;;;1.02;1.02;;;14.30;99.90;;;;;;6126773;29;20232;-68
2022/09/18 15:16:19;;;;;;;0.80;0.80;;;14.40;99.90;;;;;;6141974;29;20188;-68
2022/09/18 15:19:25;;;;;;;0.57;0.57;;;14.30;99.90;;;;;;6141756;29;20530;-68
2022/09/18 15:22:30;;;;;;;2.50;0.80;;;14.30;99.90;;;;;;6141788;29;20234;-67
2022/09/18 15:25:44;;;;;;;0.80;0.80;;;14.30;99.90;;;;;;6142257;29;20255;-67
2022/09/18 15:28:50;;;;;;;1.15;1.15;;;14.30;99.90;;;;;;6141688;29;20303;-68
2022/09/18 15:31:55;;;;;;;1.50;1.50;;;14.20;99.90;;;;;;6141576;29;20240;-68
2022/09/18 15:35:01;;;;;;;1.27;1.27;;;14.20;99.90;;;;;;6142002;29;20188;-67
2022/09/18 15:38:18;;;;;;;0.90;0.90;;;14.30;99.90;;;;;;6141455;29;20239;-67
2022/09/18 15:41:34;;;;;;;0.93;0.93;;;14.30;99.90;;;;;;6141788;29;20200;-67
2022/09/18 15:45:12;;;;;;;0.60;0.60;;;14.30;99.90;;;;;;6141427;29;20275;-68
2022/09/18 15:48:35;;;;;;;1.13;1.13;;;14.30;99.90;;;;;;6141053;29;20232;-67
2022/09/18 15:51:40;;;;;;;0.80;0.80;;;14.30;99.90;;;;;;6141142;29;20216;-67
2022/09/18 15:55:04;;;;;;;1.00;1.00;;;14.30;99.90;;;;;;6140716;29;20235;-66
2022/09/18 15:58:39;;;;;;;0.90;0.90;;;14.30;99.90;;;;;;6140820;29;20243;-67
2022/09/18 16:01:47;;;;;;;1.17;1.17;;;14.20;99.90;;;;;;6140752;29;20538;-68
2022/09/18 16:04:52;;;;;;;1.85;0.82;;;14.20;99.90;;;;;;6140830;29;20239;-68
2022/09/18 16:07:59;;;;;;;0.90;0.90;;;14.20;99.90;;;;;;6140495;29;20232;-67
2022/09/18 16:11:06;;;;;;;0.63;0.63;;;14.10;99.90;;;;;;6153655;29;20410;-67
2022/09/18 16:14:48;;;;;;;1.58;1.08;;;14.10;99.90;;;;;;6146475;28;20279;-67
2022/09/18 16:17:59;;;;;;;0.82;0.82;;;14.20;99.90;;;;;;6146808;28;20227;-67
2022/09/18 16:21:07;;;;;;;0.95;0.90;;;14.20;99.90;;;;;;6164719;29;20203;-68
2022/09/18 16:24:24;;;;;;;0.88;0.88;;;14.20;99.90;;;;;;6146261;28;20307;-67
2022/09/18 16:27:29;;;;;;;0.90;0.90;;;14.20;99.90;;;;;;6145065;28;20306;-67
2022/09/18 16:30:33;;;;;;;1.20;1.15;;;14.20;99.90;;;;;;6163922;28;20441;-67
2022/09/18 16:33:49;;;;;;;1.00;1.00;;;14.10;99.90;;;;;;6150383;28;20534;-67
2022/09/18 16:36:54;;;;;;;0.80;0.80;;;14.10;99.90;;;;;;6140540;29;20380;-68